sensor_id;sensor_type;location;lat;lon;timestamp;P1;durP1;ratioP1;P2;durP2;ratioP2
38238;SDS011;24035;48.900;9.188;2023-04-22T00:01:29;5.50;;;2.97;;
38238;SDS011;24035;48.900;9.188;2023-04-22T00:03:55;8.05;;;2.65;;
38238;SDS011;24035;48.900;9.188;2023-04-22T00:06:20;6.07;;;2.75;;
38238;SDS011;24035;48.900;9.188;2023-04-22T00:08:46;5.15;;;2.33;;
38238;SDS011;24035;48.900;9.188;2023-04-22T00:11:12;6.82;;;3.08;;
38238;SDS011;24035;48.900;9.188;2023-04-22T00:13:37;5.85;;;2.97;;
38238;SDS011;24035;48.900;9.188;2023-04-22T00:16:03;5.10;;;2.40;;
38238;SDS011;24035;48.900;9.188;2023-04-22T00:18:29;6.30;;;2.67;;
38238;SDS011;24035;48.900;9.188;2023-04-22T00:20:55;5.82;;;2.50;;
38238;SDS011;24035;48.900;9.188;2023-04-22T00:23:20;6.88;;;3.30;;
38238;SDS011;24035;48.900;9.188;2023-04-22T00:25:46;6.70;;;2.83;;
38238;SDS011;24035;48.900;9.188;2023-04-22T00:28:12;5.30;;;2.53;;
38238;SDS011;24035;48.900;9.188;2023-04-22T00:30:38;5.00;;;2.17;;
38238;SDS011;24035;48.900;9.188;2023-04-22T00:33:03;4.80;;;2.53;;
38238;SDS011;24035;48.900;9.188;2023-04-22T00:35:29;5.05;;;2.53;;
38238;SDS011;24035;48.900;9.188;2023-04-22T00:37:54;8.43;;;2.40;;
38238;SDS011;24035;48.900;9.188;2023-04-22T00:40:21;6.32;;;2.70;;
38238;SDS011;24035;48.900;9.188;2023-04-22T00:42:48;7.10;;;2.95;;
38238;SDS011;24035;48.900;9.188;2023-04-22T00:45:15;7.20;;;3.67;;
38238;SDS011;24035;48.900;9.188;2023-04-22T00:47:44;8.50;;;3.00;;
38238;SDS011;24035;48.900;9.188;2023-04-22T00:50:10;5.63;;;2.90;;
38238;SDS011;24035;48.900;9.188;2023-04-22T00:52:36;5.47;;;2.70;;
38238;SDS011;24035;48.900;9.188;2023-04-22T00:55:02;6.00;;;2.92;;
38238;SDS011;24035;48.900;9.188;2023-04-22T00:57:28;8.07;;;3.05;;
38238;SDS011;24035;48.900;9.188;2023-04-22T00:59:58;6.53;;;2.72;;
38238;SDS011;24035;48.900;9.188;2023-04-22T01:02:24;6.07;;;2.70;;
38238;SDS011;24035;48.900;9.188;2023-04-22T01:04:50;4.72;;;2.47;;
38238;SDS011;24035;48.900;9.188;2023-04-22T01:07:18;8.23;;;3.35;;
38238;SDS011;24035;48.900;9.188;2023-04-22T01:09:44;6.70;;;3.10;;
38238;SDS011;24035;48.900;9.188;2023-04-22T01:12:10;6.68;;;3.28;;
38238;SDS011;24035;48.900;9.188;2023-04-22T01:14:36;6.15;;;2.90;;
38238;SDS011;24035;48.900;9.188;2023-04-22T01:17:02;5.90;;;2.70;;
38238;SDS011;24035;48.900;9.188;2023-04-22T01:19:28;12.25;;;4.25;;
38238;SDS011;24035;48.900;9.188;2023-04-22T01:21:53;6.20;;;3.28;;
38238;SDS011;24035;48.900;9.188;2023-04-22T01:24:20;5.15;;;2.92;;
38238;SDS011;24035;48.900;9.188;2023-04-22T01:26:46;5.88;;;2.83;;
38238;SDS011;24035;48.900;9.188;2023-04-22T01:29:13;5.85;;;3.42;;
38238;SDS011;24035;48.900;9.188;2023-04-22T01:31:39;8.02;;;2.95;;
38238;SDS011;24035;48.900;9.188;2023-04-22T01:34:05;6.22;;;3.60;;
38238;SDS011;24035;48.900;9.188;2023-04-22T01:36:30;8.25;;;3.58;;
38238;SDS011;24035;48.900;9.188;2023-04-22T01:38:58;7.82;;;3.92;;
38238;SDS011;24035;48.900;9.188;2023-04-22T01:41:24;6.07;;;3.13;;
38238;SDS011;24035;48.900;9.188;2023-04-22T01:43:51;6.45;;;3.00;;
38238;SDS011;24035;48.900;9.188;2023-04-22T01:46:17;5.78;;;3.20;;
38238;SDS011;24035;48.900;9.188;2023-04-22T01:48:43;5.50;;;3.00;;
38238;SDS011;24035;48.900;9.188;2023-04-22T01:51:18;5.85;;;2.90;;
38238;SDS011;24035;48.900;9.188;2023-04-22T01:53:45;9.25;;;2.97;;
38238;SDS011;24035;48.900;9.188;2023-04-22T01:56:14;5.68;;;2.92;;
38238;SDS011;24035;48.900;9.188;2023-04-22T01:58:40;6.25;;;3.20;;
38238;SDS011;24035;48.900;9.188;2023-04-22T02:01:07;5.18;;;2.53;;
38238;SDS011;24035;48.900;9.188;2023-04-22T02:03:34;4.63;;;2.40;;
38238;SDS011;24035;48.900;9.188;2023-04-22T02:06:00;4.95;;;2.58;;
38238;SDS011;24035;48.900;9.188;2023-04-22T02:08:26;6.32;;;3.00;;
38238;SDS011;24035;48.900;9.188;2023-04-22T02:10:51;7.43;;;3.00;;
38238;SDS011;24035;48.900;9.188;2023-04-22T02:13:17;7.47;;;2.97;;
38238;SDS011;24035;48.900;9.188;2023-04-22T02:15:42;7.72;;;3.00;;
38238;SDS011;24035;48.900;9.188;2023-04-22T02:18:08;15.75;;;3.63;;
38238;SDS011;24035;48.900;9.188;2023-04-22T02:20:34;5.90;;;2.75;;
38238;SDS011;24035;48.900;9.188;2023-04-22T02:23:00;5.72;;;2.78;;
38238;SDS011;24035;48.900;9.188;2023-04-22T02:25:27;9.45;;;3.40;;
38238;SDS011;24035;48.900;9.188;2023-04-22T02:27:53;6.88;;;3.17;;
38238;SDS011;24035;48.900;9.188;2023-04-22T02:30:19;6.70;;;3.28;;
38238;SDS011;24035;48.900;9.188;2023-04-22T02:32:45;9.43;;;3.17;;
38238;SDS011;24035;48.900;9.188;2023-04-22T02:35:10;6.90;;;2.97;;
38238;SDS011;24035;48.900;9.188;2023-04-22T02:37:36;5.43;;;3.00;;
38238;SDS011;24035;48.900;9.188;2023-04-22T02:40:03;6.07;;;2.90;;
38238;SDS011;24035;48.900;9.188;2023-04-22T02:42:29;4.85;;;2.78;;
38238;SDS011;24035;48.900;9.188;2023-04-22T02:44:55;5.15;;;2.72;;
38238;SDS011;24035;48.900;9.188;2023-04-22T02:47:20;6.53;;;3.25;;
38238;SDS011;24035;48.900;9.188;2023-04-22T02:49:48;6.28;;;2.90;;
38238;SDS011;24035;48.900;9.188;2023-04-22T02:52:13;5.05;;;2.63;;
38238;SDS011;24035;48.900;9.188;2023-04-22T02:54:39;5.70;;;3.17;;
38238;SDS011;24035;48.900;9.188;2023-04-22T02:57:05;7.78;;;3.03;;
38238;SDS011;24035;48.900;9.188;2023-04-22T02:59:30;6.75;;;3.08;;
38238;SDS011;24035;48.900;9.188;2023-04-22T03:01:57;4.95;;;2.58;;
38238;SDS011;24035;48.900;9.188;2023-04-22T03:04:22;5.63;;;2.90;;
38238;SDS011;24035;48.900;9.188;2023-04-22T03:06:49;6.45;;;3.10;;
38238;SDS011;24035;48.900;9.188;2023-04-22T03:09:15;5.47;;;2.38;;
38238;SDS011;24035;48.900;9.188;2023-04-22T03:11:41;4.75;;;2.50;;
38238;SDS011;24035;48.900;9.188;2023-04-22T03:17:29;5.50;;;2.75;;
38238;SDS011;24035;48.900;9.188;2023-04-22T03:19:55;4.50;;;2.50;;
38238;SDS011;24035;48.900;9.188;2023-04-22T03:22:20;5.45;;;2.80;;
38238;SDS011;24035;48.900;9.188;2023-04-22T03:24:46;4.72;;;2.70;;
38238;SDS011;24035;48.900;9.188;2023-04-22T03:27:11;4.93;;;2.63;;
38238;SDS011;24035;48.900;9.188;2023-04-22T03:29:37;4.93;;;2.60;;
38238;SDS011;24035;48.900;9.188;2023-04-22T03:32:03;8.05;;;2.92;;
38238;SDS011;24035;48.900;9.188;2023-04-22T03:34:29;5.28;;;2.80;;
38238;SDS011;24035;48.900;9.188;2023-04-22T03:36:54;5.65;;;2.88;;
38238;SDS011;24035;48.900;9.188;2023-04-22T03:39:20;4.88;;;2.50;;
38238;SDS011;24035;48.900;9.188;2023-04-22T03:41:46;5.47;;;2.63;;
38238;SDS011;24035;48.900;9.188;2023-04-22T03:44:11;5.03;;;2.50;;
38238;SDS011;24035;48.900;9.188;2023-04-22T03:46:37;6.38;;;3.03;;
38238;SDS011;24035;48.900;9.188;2023-04-22T03:49:02;6.63;;;3.00;;
38238;SDS011;24035;48.900;9.188;2023-04-22T03:51:28;7.38;;;2.42;;
38238;SDS011;24035;48.900;9.188;2023-04-22T03:53:54;5.43;;;2.92;;
38238;SDS011;24035;48.900;9.188;2023-04-22T03:56:19;4.90;;;2.72;;
38238;SDS011;24035;48.900;9.188;2023-04-22T03:58:45;5.78;;;2.83;;
38238;SDS011;24035;48.900;9.188;2023-04-22T04:01:11;6.53;;;2.92;;
38238;SDS011;24035;48.900;9.188;2023-04-22T04:03:36;7.00;;;2.97;;
38238;SDS011;24035;48.900;9.188;2023-04-22T04:06:02;7.38;;;2.80;;
38238;SDS011;24035;48.900;9.188;2023-04-22T04:08:28;5.63;;;2.90;;
38238;SDS011;24035;48.900;9.188;2023-04-22T04:10:53;5.65;;;3.00;;
38238;SDS011;24035;48.900;9.188;2023-04-22T04:13:19;6.20;;;2.78;;
38238;SDS011;24035;48.900;9.188;2023-04-22T04:15:45;6.90;;;3.00;;
38238;SDS011;24035;48.900;9.188;2023-04-22T04:18:11;5.38;;;2.80;;
38238;SDS011;24035;48.900;9.188;2023-04-22T04:20:37;6.03;;;2.72;;
38238;SDS011;24035;48.900;9.188;2023-04-22T04:23:03;5.50;;;2.90;;
38238;SDS011;24035;48.900;9.188;2023-04-22T04:25:28;5.30;;;2.65;;
38238;SDS011;24035;48.900;9.188;2023-04-22T04:28:04;6.45;;;2.38;;
38238;SDS011;24035;48.900;9.188;2023-04-22T04:30:33;6.68;;;2.55;;
38238;SDS011;24035;48.900;9.188;2023-04-22T04:33:00;6.88;;;3.00;;
38238;SDS011;24035;48.900;9.188;2023-04-22T04:35:31;6.38;;;2.80;;
38238;SDS011;24035;48.900;9.188;2023-04-22T04:37:59;6.95;;;3.08;;
38238;SDS011;24035;48.900;9.188;2023-04-22T04:40:25;6.82;;;2.80;;
38238;SDS011;24035;48.900;9.188;2023-04-22T04:42:53;11.05;;;3.33;;
38238;SDS011;24035;48.900;9.188;2023-04-22T04:45:20;5.65;;;2.55;;
38238;SDS011;24035;48.900;9.188;2023-04-22T04:47:46;6.72;;;3.03;;
38238;SDS011;24035;48.900;9.188;2023-04-22T04:50:15;8.40;;;2.80;;
38238;SDS011;24035;48.900;9.188;2023-04-22T04:52:41;7.55;;;3.50;;
38238;SDS011;24035;48.900;9.188;2023-04-22T04:55:07;7.55;;;3.03;;
38238;SDS011;24035;48.900;9.188;2023-04-22T04:57:33;5.82;;;3.22;;
38238;SDS011;24035;48.900;9.188;2023-04-22T04:59:58;6.97;;;2.92;;
38238;SDS011;24035;48.900;9.188;2023-04-22T05:02:25;8.02;;;3.53;;
38238;SDS011;24035;48.900;9.188;2023-04-22T05:04:51;6.22;;;2.72;;
38238;SDS011;24035;48.900;9.188;2023-04-22T05:07:16;5.57;;;3.03;;
38238;SDS011;24035;48.900;9.188;2023-04-22T05:09:42;5.57;;;3.03;;
38238;SDS011;24035;48.900;9.188;2023-04-22T05:12:07;5.90;;;3.05;;
38238;SDS011;24035;48.900;9.188;2023-04-22T05:14:33;7.55;;;2.70;;
38238;SDS011;24035;48.900;9.188;2023-04-22T05:16:59;6.95;;;2.92;;
38238;SDS011;24035;48.900;9.188;2023-04-22T05:19:25;5.28;;;2.72;;
38238;SDS011;24035;48.900;9.188;2023-04-22T05:21:50;6.68;;;2.75;;
38238;SDS011;24035;48.900;9.188;2023-04-22T05:24:16;6.65;;;3.47;;
38238;SDS011;24035;48.900;9.188;2023-04-22T05:26:42;5.38;;;2.67;;
38238;SDS011;24035;48.900;9.188;2023-04-22T05:29:07;7.20;;;3.45;;
38238;SDS011;24035;48.900;9.188;2023-04-22T05:31:33;6.22;;;3.03;;
38238;SDS011;24035;48.900;9.188;2023-04-22T05:33:58;7.03;;;3.05;;
38238;SDS011;24035;48.900;9.188;2023-04-22T05:36:24;5.93;;;3.30;;
38238;SDS011;24035;48.900;9.188;2023-04-22T05:38:51;5.22;;;2.72;;
38238;SDS011;24035;48.900;9.188;2023-04-22T05:41:17;9.18;;;3.38;;
38238;SDS011;24035;48.900;9.188;2023-04-22T05:43:43;6.43;;;3.58;;
38238;SDS011;24035;48.900;9.188;2023-04-22T05:46:08;5.93;;;3.17;;
38238;SDS011;24035;48.900;9.188;2023-04-22T05:48:34;6.63;;;3.20;;
38238;SDS011;24035;48.900;9.188;2023-04-22T05:51:00;5.97;;;2.90;;
38238;SDS011;24035;48.900;9.188;2023-04-22T05:53:26;9.60;;;3.28;;
38238;SDS011;24035;48.900;9.188;2023-04-22T05:55:52;10.13;;;2.90;;
38238;SDS011;24035;48.900;9.188;2023-04-22T05:58:17;6.75;;;3.20;;
38238;SDS011;24035;48.900;9.188;2023-04-22T06:00:43;5.82;;;3.25;;
38238;SDS011;24035;48.900;9.188;2023-04-22T06:03:09;5.80;;;2.88;;
38238;SDS011;24035;48.900;9.188;2023-04-22T06:05:34;4.93;;;2.70;;
38238;SDS011;24035;48.900;9.188;2023-04-22T06:08:00;7.72;;;3.25;;
38238;SDS011;24035;48.900;9.188;2023-04-22T06:10:25;5.38;;;2.97;;
38238;SDS011;24035;48.900;9.188;2023-04-22T06:12:51;6.80;;;3.00;;
38238;SDS011;24035;48.900;9.188;2023-04-22T06:15:17;7.85;;;3.03;;
38238;SDS011;24035;48.900;9.188;2023-04-22T06:17:42;6.70;;;2.88;;
38238;SDS011;24035;48.900;9.188;2023-04-22T06:20:09;4.18;;;2.47;;
38238;SDS011;24035;48.900;9.188;2023-04-22T06:22:35;4.75;;;2.72;;
38238;SDS011;24035;48.900;9.188;2023-04-22T06:25:01;7.30;;;2.63;;
38238;SDS011;24035;48.900;9.188;2023-04-22T06:27:27;8.43;;;3.00;;
38238;SDS011;24035;48.900;9.188;2023-04-22T06:29:52;5.35;;;2.50;;
38238;SDS011;24035;48.900;9.188;2023-04-22T06:32:18;4.68;;;2.65;;
38238;SDS011;24035;48.900;9.188;2023-04-22T06:34:44;4.75;;;2.63;;
38238;SDS011;24035;48.900;9.188;2023-04-22T06:37:09;5.05;;;2.30;;
38238;SDS011;24035;48.900;9.188;2023-04-22T06:39:35;5.45;;;2.45;;
38238;SDS011;24035;48.900;9.188;2023-04-22T06:42:01;7.00;;;2.60;;
38238;SDS011;24035;48.900;9.188;2023-04-22T06:44:27;5.78;;;2.63;;
38238;SDS011;24035;48.900;9.188;2023-04-22T06:46:53;4.30;;;2.47;;
38238;SDS011;24035;48.900;9.188;2023-04-22T06:49:19;4.82;;;2.30;;
38238;SDS011;24035;48.900;9.188;2023-04-22T06:51:45;5.70;;;2.63;;
38238;SDS011;24035;48.900;9.188;2023-04-22T06:54:10;4.70;;;2.55;;
38238;SDS011;24035;48.900;9.188;2023-04-22T06:56:36;4.78;;;2.47;;
38238;SDS011;24035;48.900;9.188;2023-04-22T06:59:02;5.93;;;2.60;;
38238;SDS011;24035;48.900;9.188;2023-04-22T07:01:27;4.47;;;2.40;;
38238;SDS011;24035;48.900;9.188;2023-04-22T07:03:53;6.75;;;2.97;;
38238;SDS011;24035;48.900;9.188;2023-04-22T07:06:18;6.13;;;2.50;;
38238;SDS011;24035;48.900;9.188;2023-04-22T07:08:44;5.45;;;2.58;;
38238;SDS011;24035;48.900;9.188;2023-04-22T07:11:10;4.88;;;2.40;;
38238;SDS011;24035;48.900;9.188;2023-04-22T07:13:35;4.80;;;2.17;;
38238;SDS011;24035;48.900;9.188;2023-04-22T07:16:01;6.10;;;2.58;;
38238;SDS011;24035;48.900;9.188;2023-04-22T07:18:27;5.53;;;2.70;;
38238;SDS011;24035;48.900;9.188;2023-04-22T07:20:53;5.53;;;2.75;;
38238;SDS011;24035;48.900;9.188;2023-04-22T07:23:19;5.25;;;2.55;;
38238;SDS011;24035;48.900;9.188;2023-04-22T07:25:45;4.55;;;2.30;;
38238;SDS011;24035;48.900;9.188;2023-04-22T07:28:11;6.65;;;2.40;;
38238;SDS011;24035;48.900;9.188;2023-04-22T07:30:36;5.63;;;2.30;;
38238;SDS011;24035;48.900;9.188;2023-04-22T07:33:02;4.72;;;2.13;;
38238;SDS011;24035;48.900;9.188;2023-04-22T07:35:28;5.05;;;2.67;;
38238;SDS011;24035;48.900;9.188;2023-04-22T07:37:54;4.30;;;2.40;;
38238;SDS011;24035;48.900;9.188;2023-04-22T07:40:20;4.57;;;2.55;;
38238;SDS011;24035;48.900;9.188;2023-04-22T07:42:46;5.65;;;1.73;;
38238;SDS011;24035;48.900;9.188;2023-04-22T07:45:11;6.57;;;2.05;;
38238;SDS011;24035;48.900;9.188;2023-04-22T07:47:37;7.30;;;2.00;;
38238;SDS011;24035;48.900;9.188;2023-04-22T07:50:03;4.35;;;2.15;;
38238;SDS011;24035;48.900;9.188;2023-04-22T07:52:29;4.63;;;2.20;;
38238;SDS011;24035;48.900;9.188;2023-04-22T07:54:55;7.07;;;1.83;;
38238;SDS011;24035;48.900;9.188;2023-04-22T07:57:21;3.92;;;1.98;;
38238;SDS011;24035;48.900;9.188;2023-04-22T07:59:47;9.95;;;3.70;;
38238;SDS011;24035;48.900;9.188;2023-04-22T08:02:13;6.00;;;2.15;;
38238;SDS011;24035;48.900;9.188;2023-04-22T08:04:39;3.00;;;1.67;;
38238;SDS011;24035;48.900;9.188;2023-04-22T08:07:04;7.25;;;2.00;;
38238;SDS011;24035;48.900;9.188;2023-04-22T08:09:30;3.75;;;1.73;;
38238;SDS011;24035;48.900;9.188;2023-04-22T08:11:56;4.75;;;2.00;;
38238;SDS011;24035;48.900;9.188;2023-04-22T08:14:22;4.40;;;2.17;;
38238;SDS011;24035;48.900;9.188;2023-04-22T08:16:50;3.90;;;2.00;;
38238;SDS011;24035;48.900;9.188;2023-04-22T08:19:17;4.60;;;2.13;;
38238;SDS011;24035;48.900;9.188;2023-04-22T08:21:43;4.90;;;2.10;;
38238;SDS011;24035;48.900;9.188;2023-04-22T08:24:08;5.38;;;2.00;;
38238;SDS011;24035;48.900;9.188;2023-04-22T08:26:35;10.93;;;3.92;;
38238;SDS011;24035;48.900;9.188;2023-04-22T08:29:02;3.78;;;1.95;;
38238;SDS011;24035;48.900;9.188;2023-04-22T08:31:28;5.10;;;1.90;;
38238;SDS011;24035;48.900;9.188;2023-04-22T08:33:54;5.28;;;2.30;;
38238;SDS011;24035;48.900;9.188;2023-04-22T08:36:20;3.42;;;1.50;;
38238;SDS011;24035;48.900;9.188;2023-04-22T08:38:48;4.72;;;1.67;;
38238;SDS011;24035;48.900;9.188;2023-04-22T08:41:14;5.28;;;1.75;;
38238;SDS011;24035;48.900;9.188;2023-04-22T08:43:40;4.30;;;1.90;;
38238;SDS011;24035;48.900;9.188;2023-04-22T08:46:05;3.92;;;1.52;;
38238;SDS011;24035;48.900;9.188;2023-04-22T08:48:31;3.03;;;1.30;;
38238;SDS011;24035;48.900;9.188;2023-04-22T08:50:57;3.88;;;1.70;;
38238;SDS011;24035;48.900;9.188;2023-04-22T08:53:23;3.67;;;1.38;;
38238;SDS011;24035;48.900;9.188;2023-04-22T08:55:48;4.65;;;1.30;;
38238;SDS011;24035;48.900;9.188;2023-04-22T08:58:15;2.90;;;1.27;;
38238;SDS011;24035;48.900;9.188;2023-04-22T09:00:42;5.45;;;1.40;;
38238;SDS011;24035;48.900;9.188;2023-04-22T09:03:08;3.55;;;1.30;;
38238;SDS011;24035;48.900;9.188;2023-04-22T09:05:35;4.10;;;1.50;;
38238;SDS011;24035;48.900;9.188;2023-04-22T09:08:03;4.43;;;1.55;;
38238;SDS011;24035;48.900;9.188;2023-04-22T09:10:30;7.10;;;1.95;;
38238;SDS011;24035;48.900;9.188;2023-04-22T09:12:56;3.83;;;1.50;;
38238;SDS011;24035;48.900;9.188;2023-04-22T09:15:23;3.22;;;1.38;;
38238;SDS011;24035;48.900;9.188;2023-04-22T09:17:50;4.22;;;1.25;;
38238;SDS011;24035;48.900;9.188;2023-04-22T09:20:16;4.20;;;1.40;;
38238;SDS011;24035;48.900;9.188;2023-04-22T09:22:44;3.10;;;1.40;;
38238;SDS011;24035;48.900;9.188;2023-04-22T09:25:18;2.97;;;1.33;;
38238;SDS011;24035;48.900;9.188;2023-04-22T09:27:53;3.03;;;1.17;;
38238;SDS011;24035;48.900;9.188;2023-04-22T09:32:57;2.83;;;1.40;;
38238;SDS011;24035;48.900;9.188;2023-04-22T09:35:25;5.18;;;1.45;;
38238;SDS011;24035;48.900;9.188;2023-04-22T09:37:52;4.75;;;1.38;;
38238;SDS011;24035;48.900;9.188;2023-04-22T09:40:18;3.55;;;1.08;;
38238;SDS011;24035;48.900;9.188;2023-04-22T09:42:48;2.78;;;1.20;;
38238;SDS011;24035;48.900;9.188;2023-04-22T09:45:24;2.47;;;1.13;;
38238;SDS011;24035;48.900;9.188;2023-04-22T09:48:06;3.10;;;1.23;;
38238;SDS011;24035;48.900;9.188;2023-04-22T09:50:36;2.67;;;1.05;;
38238;SDS011;24035;48.900;9.188;2023-04-22T09:53:04;2.47;;;1.08;;
38238;SDS011;24035;48.900;9.188;2023-04-22T09:55:36;1.80;;;0.85;;
38238;SDS011;24035;48.900;9.188;2023-04-22T09:58:07;2.10;;;1.10;;
38238;SDS011;24035;48.900;9.188;2023-04-22T10:00:35;3.13;;;1.45;;
38238;SDS011;24035;48.900;9.188;2023-04-22T10:03:12;3.60;;;1.20;;
38238;SDS011;24035;48.900;9.188;2023-04-22T10:05:38;3.25;;;1.10;;
38238;SDS011;24035;48.900;9.188;2023-04-22T10:08:05;5.47;;;1.33;;
38238;SDS011;24035;48.900;9.188;2023-04-22T10:10:32;2.47;;;1.02;;
38238;SDS011;24035;48.900;9.188;2023-04-22T10:12:59;3.63;;;1.23;;
38238;SDS011;24035;48.900;9.188;2023-04-22T10:15:26;1.90;;;0.90;;
38238;SDS011;24035;48.900;9.188;2023-04-22T10:18:09;3.33;;;1.15;;
38238;SDS011;24035;48.900;9.188;2023-04-22T10:20:38;2.35;;;0.98;;
38238;SDS011;24035;48.900;9.188;2023-04-22T10:23:05;2.20;;;0.95;;
38238;SDS011;24035;48.900;9.188;2023-04-22T10:25:38;2.73;;;1.10;;
38238;SDS011;24035;48.900;9.188;2023-04-22T10:28:05;2.35;;;1.25;;
38238;SDS011;24035;48.900;9.188;2023-04-22T10:30:34;4.68;;;1.15;;
38238;SDS011;24035;48.900;9.188;2023-04-22T10:41:23;3.20;;;1.17;;
38238;SDS011;24035;48.900;9.188;2023-04-22T10:43:57;3.30;;;1.23;;
38238;SDS011;24035;48.900;9.188;2023-04-22T10:48:56;3.20;;;1.30;;
38238;SDS011;24035;48.900;9.188;2023-04-22T10:54:07;3.92;;;1.30;;
38238;SDS011;24035;48.900;9.188;2023-04-22T10:57:12;2.55;;;1.10;;
38238;SDS011;24035;48.900;9.188;2023-04-22T10:59:47;3.28;;;1.10;;
38238;SDS011;24035;48.900;9.188;2023-04-22T11:02:16;2.20;;;0.95;;
38238;SDS011;24035;48.900;9.188;2023-04-22T11:04:42;2.25;;;0.90;;
38238;SDS011;24035;48.900;9.188;2023-04-22T11:09:45;1.73;;;0.77;;
38238;SDS011;24035;48.900;9.188;2023-04-22T11:14:58;3.38;;;1.20;;
38238;SDS011;24035;48.900;9.188;2023-04-22T11:19:57;2.20;;;1.02;;
38238;SDS011;24035;48.900;9.188;2023-04-22T11:22:23;2.55;;;1.00;;
38238;SDS011;24035;48.900;9.188;2023-04-22T11:24:56;2.85;;;1.02;;
38238;SDS011;24035;48.900;9.188;2023-04-22T11:27:23;2.10;;;0.70;;
38238;SDS011;24035;48.900;9.188;2023-04-22T11:32:41;1.58;;;0.60;;
38238;SDS011;24035;48.900;9.188;2023-04-22T11:35:09;2.30;;;0.80;;
38238;SDS011;24035;48.900;9.188;2023-04-22T11:37:43;3.55;;;0.80;;
38238;SDS011;24035;48.900;9.188;2023-04-22T11:40:17;2.42;;;0.85;;
38238;SDS011;24035;48.900;9.188;2023-04-22T11:42:47;1.85;;;0.73;;
38238;SDS011;24035;48.900;9.188;2023-04-22T11:45:13;3.47;;;0.93;;
38238;SDS011;24035;48.900;9.188;2023-04-22T11:47:40;1.98;;;0.85;;
38238;SDS011;24035;48.900;9.188;2023-04-22T11:50:09;3.05;;;0.90;;
38238;SDS011;24035;48.900;9.188;2023-04-22T11:55:10;3.30;;;0.83;;
38238;SDS011;24035;48.900;9.188;2023-04-22T11:57:36;1.90;;;0.77;;
38238;SDS011;24035;48.900;9.188;2023-04-22T12:00:02;2.35;;;0.98;;
38238;SDS011;24035;48.900;9.188;2023-04-22T12:02:29;3.25;;;1.00;;
38238;SDS011;24035;48.900;9.188;2023-04-22T12:04:54;2.53;;;0.90;;
38238;SDS011;24035;48.900;9.188;2023-04-22T12:07:25;2.05;;;0.80;;
38238;SDS011;24035;48.900;9.188;2023-04-22T12:09:55;3.05;;;1.02;;
38238;SDS011;24035;48.900;9.188;2023-04-22T12:12:27;4.45;;;1.15;;
38238;SDS011;24035;48.900;9.188;2023-04-22T12:14:53;3.42;;;0.85;;
38238;SDS011;24035;48.900;9.188;2023-04-22T12:17:22;2.25;;;0.80;;
38238;SDS011;24035;48.900;9.188;2023-04-22T12:19:52;1.80;;;0.80;;
38238;SDS011;24035;48.900;9.188;2023-04-22T12:22:26;2.53;;;1.02;;
38238;SDS011;24035;48.900;9.188;2023-04-22T12:24:53;3.42;;;0.98;;
38238;SDS011;24035;48.900;9.188;2023-04-22T12:27:21;3.20;;;0.95;;
38238;SDS011;24035;48.900;9.188;2023-04-22T12:29:51;3.85;;;1.13;;
38238;SDS011;24035;48.900;9.188;2023-04-22T12:32:22;4.50;;;0.90;;
38238;SDS011;24035;48.900;9.188;2023-04-22T12:34:49;2.50;;;0.80;;
38238;SDS011;24035;48.900;9.188;2023-04-22T12:37:15;2.90;;;0.80;;
38238;SDS011;24035;48.900;9.188;2023-04-22T12:39:42;2.88;;;1.10;;
38238;SDS011;24035;48.900;9.188;2023-04-22T12:42:08;3.13;;;0.90;;
38238;SDS011;24035;48.900;9.188;2023-04-22T12:44:34;2.83;;;1.17;;
38238;SDS011;24035;48.900;9.188;2023-04-22T12:47:02;2.33;;;0.82;;
38238;SDS011;24035;48.900;9.188;2023-04-22T12:49:28;2.63;;;0.90;;
38238;SDS011;24035;48.900;9.188;2023-04-22T12:51:54;1.95;;;0.77;;
38238;SDS011;24035;48.900;9.188;2023-04-22T12:54:20;3.13;;;0.85;;
38238;SDS011;24035;48.900;9.188;2023-04-22T12:56:46;5.82;;;1.13;;
38238;SDS011;24035;48.900;9.188;2023-04-22T12:59:12;1.92;;;0.85;;
38238;SDS011;24035;48.900;9.188;2023-04-22T13:01:39;2.88;;;0.75;;
38238;SDS011;24035;48.900;9.188;2023-04-22T13:04:04;4.13;;;0.80;;
38238;SDS011;24035;48.900;9.188;2023-04-22T13:09:52;4.00;;;1.30;;
38238;SDS011;24035;48.900;9.188;2023-04-22T13:12:18;2.45;;;0.80;;
38238;SDS011;24035;48.900;9.188;2023-04-22T13:14:44;2.58;;;0.82;;
38238;SDS011;24035;48.900;9.188;2023-04-22T13:17:09;3.30;;;1.33;;
38238;SDS011;24035;48.900;9.188;2023-04-22T13:19:35;2.45;;;0.90;;
38238;SDS011;24035;48.900;9.188;2023-04-22T13:22:01;2.45;;;1.00;;
38238;SDS011;24035;48.900;9.188;2023-04-22T13:24:26;3.05;;;1.17;;
38238;SDS011;24035;48.900;9.188;2023-04-22T13:26:52;4.32;;;1.17;;
38238;SDS011;24035;48.900;9.188;2023-04-22T13:29:18;2.45;;;1.10;;
38238;SDS011;24035;48.900;9.188;2023-04-22T13:31:43;3.90;;;1.30;;
38238;SDS011;24035;48.900;9.188;2023-04-22T13:34:10;4.15;;;1.20;;
38238;SDS011;24035;48.900;9.188;2023-04-22T13:36:36;2.45;;;0.90;;
38238;SDS011;24035;48.900;9.188;2023-04-22T13:39:02;3.30;;;1.35;;
38238;SDS011;24035;48.900;9.188;2023-04-22T13:41:28;1.92;;;0.75;;
38238;SDS011;24035;48.900;9.188;2023-04-22T13:43:53;2.53;;;0.80;;
38238;SDS011;24035;48.900;9.188;2023-04-22T13:46:21;2.47;;;0.90;;
38238;SDS011;24035;48.900;9.188;2023-04-22T13:48:47;3.97;;;1.75;;
38238;SDS011;24035;48.900;9.188;2023-04-22T13:51:13;2.88;;;1.10;;
38238;SDS011;24035;48.900;9.188;2023-04-22T13:53:39;2.38;;;0.90;;
38238;SDS011;24035;48.900;9.188;2023-04-22T13:56:05;3.17;;;1.27;;
38238;SDS011;24035;48.900;9.188;2023-04-22T13:58:31;4.00;;;0.90;;
38238;SDS011;24035;48.900;9.188;2023-04-22T14:00:56;2.60;;;0.80;;
38238;SDS011;24035;48.900;9.188;2023-04-22T14:03:22;2.70;;;0.68;;
38238;SDS011;24035;48.900;9.188;2023-04-22T14:05:48;3.90;;;0.98;;
38238;SDS011;24035;48.900;9.188;2023-04-22T14:08:14;3.58;;;0.98;;
38238;SDS011;24035;48.900;9.188;2023-04-22T14:10:39;1.75;;;0.70;;
38238;SDS011;24035;48.900;9.188;2023-04-22T14:13:05;2.22;;;0.98;;
38238;SDS011;24035;48.900;9.188;2023-04-22T14:15:31;2.75;;;1.00;;
38238;SDS011;24035;48.900;9.188;2023-04-22T14:17:57;3.58;;;1.00;;
38238;SDS011;24035;48.900;9.188;2023-04-22T14:20:22;4.53;;;0.90;;
38238;SDS011;24035;48.900;9.188;2023-04-22T14:22:51;1.73;;;0.80;;
38238;SDS011;24035;48.900;9.188;2023-04-22T14:25:16;1.65;;;0.68;;
38238;SDS011;24035;48.900;9.188;2023-04-22T14:27:42;4.60;;;1.10;;
38238;SDS011;24035;48.900;9.188;2023-04-22T14:30:08;3.00;;;1.10;;
38238;SDS011;24035;48.900;9.188;2023-04-22T14:32:34;3.65;;;1.10;;
38238;SDS011;24035;48.900;9.188;2023-04-22T14:35:00;2.70;;;0.90;;
38238;SDS011;24035;48.900;9.188;2023-04-22T14:37:26;3.33;;;0.93;;
38238;SDS011;24035;48.900;9.188;2023-04-22T14:39:51;1.35;;;0.70;;
38238;SDS011;24035;48.900;9.188;2023-04-22T14:42:17;3.42;;;0.90;;
38238;SDS011;24035;48.900;9.188;2023-04-22T14:44:43;4.00;;;1.15;;
38238;SDS011;24035;48.900;9.188;2023-04-22T14:47:09;3.08;;;0.85;;
38238;SDS011;24035;48.900;9.188;2023-04-22T14:49:35;2.53;;;0.93;;
38238;SDS011;24035;48.900;9.188;2023-04-22T14:52:00;2.92;;;0.95;;
38238;SDS011;24035;48.900;9.188;2023-04-22T14:54:26;3.45;;;0.98;;
38238;SDS011;24035;48.900;9.188;2023-04-22T14:56:52;3.03;;;0.90;;
38238;SDS011;24035;48.900;9.188;2023-04-22T14:59:20;3.78;;;0.93;;
38238;SDS011;24035;48.900;9.188;2023-04-22T15:01:45;4.32;;;0.82;;
38238;SDS011;24035;48.900;9.188;2023-04-22T15:04:11;6.38;;;1.00;;
38238;SDS011;24035;48.900;9.188;2023-04-22T15:06:39;2.10;;;0.85;;
38238;SDS011;24035;48.900;9.188;2023-04-22T15:09:05;2.58;;;0.80;;
38238;SDS011;24035;48.900;9.188;2023-04-22T15:11:31;1.65;;;0.70;;
38238;SDS011;24035;48.900;9.188;2023-04-22T15:13:56;4.22;;;0.70;;
38238;SDS011;24035;48.900;9.188;2023-04-22T15:16:22;2.63;;;0.73;;
38238;SDS011;24035;48.900;9.188;2023-04-22T15:18:48;3.33;;;0.75;;
38238;SDS011;24035;48.900;9.188;2023-04-22T15:21:14;3.08;;;0.85;;